Time;durP1;ratioP1;P1;durP2;ratioP2;P2;SDS_P1;SDS_P2;PMS_P1;PMS_P2;Temp;Humidity;BMP_temperature;BMP_pressure;BME280_temperature;BME280_humidity;BME280_pressure;Samples;Min_cycle;Max_cycle;Signal;HPM_P1;HPM_P2
2023/04/16 00:01:36;;;;;;;27.25;10.43;;;;;;;6.76;100.00;101588.28;5060136;28;20094;-73
2023/04/16 00:04:02;;;;;;;25.08;10.88;;;;;;;6.77;100.00;101589.88;5063702;28;20053;-75
2023/04/16 00:06:29;;;;;;;25.65;10.55;;;;;;;6.80;100.00;101595.47;5061217;28;20080;-75
2023/04/16 00:08:56;;;;;;;23.38;8.85;;;;;;;6.73;100.00;101592.59;5062686;28;20041;-74
2023/04/16 00:11:22;;;;;;;26.00;11.13;;;;;;;6.77;100.00;101584.34;5059579;28;20506;-76
2023/04/16 00:13:49;;;;;;;31.77;12.52;;;;;;;6.76;100.00;101582.75;5057086;28;20056;-74
2023/04/16 00:16:15;;;;;;;34.35;13.98;;;;;;;6.76;100.00;101591.81;5064209;28;20614;-73
2023/04/16 00:18:42;;;;;;;24.15;9.32;;;;;;;6.74;100.00;101596.13;5057339;28;20037;-74
2023/04/16 00:21:08;;;;;;;24.70;10.15;;;;;;;6.75;100.00;101593.00;5065401;28;20044;-74
2023/04/16 00:23:35;;;;;;;27.98;11.93;;;;;;;6.77;100.00;101596.22;5068683;28;20049;-73
2023/04/16 00:26:01;;;;;;;18.35;7.63;;;;;;;6.75;100.00;101593.00;5056833;28;20135;-73
2023/04/16 00:28:28;;;;;;;25.15;11.25;;;;;;;6.78;100.00;101597.78;5056560;28;20045;-76
2023/04/16 00:30:54;;;;;;;24.92;10.63;;;;;;;6.75;100.00;101601.28;5070861;28;20058;-74
2023/04/16 00:33:22;;;;;;;24.50;10.85;;;;;;;6.76;100.00;101605.66;5056822;28;20076;-75
2023/04/16 00:35:50;;;;;;;26.15;11.93;;;;;;;6.80;100.00;101601.00;5058569;28;20052;-74
2023/04/16 00:38:16;;;;;;;23.95;11.35;;;;;;;6.77;100.00;101598.97;5060019;28;20078;-72
2023/04/16 00:40:43;;;;;;;30.80;12.77;;;;;;;6.80;100.00;101606.53;5069236;28;20051;-78
2023/04/16 00:43:09;;;;;;;30.00;10.85;;;;;;;6.78;100.00;101597.78;5065869;28;20056;-74
2023/04/16 00:45:36;;;;;;;29.08;12.10;;;;;;;6.77;100.00;101593.44;5062056;28;20505;-74
2023/04/16 00:48:03;;;;;;;28.20;12.95;;;;;;;6.80;100.00;101600.19;5051156;28;20051;-74
2023/04/16 00:50:29;;;;;;;27.77;12.13;;;;;;;6.78;100.00;101588.69;5065882;28;20507;-73
2023/04/16 00:52:56;;;;;;;16.88;5.93;;;;;;;6.78;100.00;101606.09;5061465;28;20119;-73
2023/04/16 00:55:23;;;;;;;28.25;13.55;;;;;;;6.78;100.00;101606.09;5062267;28;20134;-74
2023/04/16 00:57:50;;;;;;;23.17;11.27;;;;;;;6.80;100.00;101595.47;5066965;28;20049;-73
2023/04/16 01:00:16;;;;;;;28.50;12.75;;;;;;;6.81;100.00;101610.88;5065489;28;20049;-73
2023/04/16 01:02:43;;;;;;;28.60;11.32;;;;;;;6.81;100.00;101610.88;5059984;28;20052;-74
2023/04/16 01:05:10;;;;;;;27.33;12.77;;;;;;;6.85;100.00;101611.72;5058893;28;20048;-74
2023/04/16 01:07:36;;;;;;;24.35;10.00;;;;;;;6.81;100.00;101612.84;5064899;28;20052;-77
2023/04/16 01:10:03;;;;;;;29.52;13.15;;;;;;;6.82;100.00;101608.91;5064439;28;20052;-73
2023/04/16 01:12:30;;;;;;;33.97;13.23;;;;;;;6.84;100.00;101612.91;5064477;28;20048;-77
2023/04/16 01:14:56;;;;;;;31.60;11.90;;;;;;;6.84;100.00;101601.03;5063291;28;20044;-73
2023/04/16 01:17:23;;;;;;;21.13;8.90;;;;;;;6.80;100.00;101606.53;5053241;28;20067;-76
2023/04/16 01:19:49;;;;;;;28.25;11.90;;;;;;;6.83;100.00;101616.03;5055346;28;20059;-74
2023/04/16 01:22:16;;;;;;;32.88;14.05;;;;;;;6.80;100.00;101606.53;5059634;28;20682;-75
2023/04/16 01:24:43;;;;;;;23.85;9.98;;;;;;;6.81;100.00;101610.06;5066663;28;20062;-74
2023/04/16 01:27:10;;;;;;;28.63;12.02;;;;;;;6.81;100.00;101610.06;5063010;28;20059;-75
2023/04/16 01:29:36;;;;;;;32.13;13.55;;;;;;;6.81;100.00;101618.34;5061707;28;20052;-75
2023/04/16 01:32:03;;;;;;;33.90;14.38;;;;;;;6.82;100.00;101619.97;5057255;28;20396;-74
2023/04/16 01:34:29;;;;;;;36.33;15.50;;;;;;;6.82;100.00;101625.50;5060020;28;20827;-77
2023/04/16 01:36:56;;;;;;;28.23;12.38;;;;;;;6.81;100.00;101629.41;5068602;28;20130;-75
2023/04/16 01:39:22;;;;;;;35.90;13.98;;;;;;;6.82;100.00;101631.03;5066695;28;20052;-77
2023/04/16 01:41:49;;;;;;;28.92;10.65;;;;;;;6.82;100.00;101626.28;5062392;28;20059;-76
2023/04/16 01:44:15;;;;;;;37.05;14.82;;;;;;;6.85;100.00;101631.06;5067973;28;20060;-75
2023/04/16 01:46:42;;;;;;;37.55;15.27;;;;;;;6.85;100.00;101628.31;5060829;28;20593;-74
2023/04/16 01:49:09;;;;;;;25.40;8.50;;;;;;;6.87;100.00;101634.28;5058494;28;20053;-76
2023/04/16 01:51:36;;;;;;;34.10;14.88;;;;;;;6.87;100.00;101628.75;5066734;28;20513;-75
2023/04/16 01:54:03;;;;;;;31.23;11.27;;;;;;;6.87;100.00;101633.47;5059066;28;20504;-76
2023/04/16 01:56:29;;;;;;;30.17;12.88;;;;;;;6.86;100.00;101627.13;5060918;28;20076;-75
2023/04/16 01:58:55;;;;;;;27.15;12.05;;;;;;;6.89;100.00;101631.16;5067952;28;20060;-74
2023/04/16 02:01:22;;;;;;;39.72;15.75;;;;;;;6.90;100.00;101633.53;5062546;28;20049;-76
2023/04/16 02:03:51;;;;;;;40.50;15.32;;;;;;;6.86;100.00;101632.66;5063131;28;20102;-75
2023/04/16 02:06:17;;;;;;;36.30;15.45;;;;;;;6.91;100.00;101639.84;5054826;28;20072;-76
2023/04/16 02:08:44;;;;;;;21.33;8.18;;;;;;;6.91;100.00;101626.84;5062718;28;20036;-77
2023/04/16 02:11:10;;;;;;;39.55;15.80;;;;;;;6.96;100.00;101631.25;5064630;28;20075;-76
2023/04/16 02:13:37;;;;;;;29.80;14.35;;;;;;;6.99;100.00;101631.28;5068768;28;20079;-72
2023/04/16 02:16:04;;;;;;;36.20;17.50;;;;;;;6.99;100.00;101634.06;5061152;28;20147;-77
2023/04/16 02:18:30;;;;;;;32.70;15.38;;;;;;;7.01;100.00;101631.72;5070280;28;20101;-74
2023/04/16 02:21:01;;;;;;;37.72;15.75;;;;;;;7.03;100.00;101620.31;5067160;28;20789;-76
2023/04/16 02:23:27;;;;;;;37.35;17.08;;;;;;;7.03;100.00;101626.63;5064657;28;20059;-72
2023/04/16 02:25:54;;;;;;;35.42;15.75;;;;;;;7.03;100.00;101623.84;5069220;28;20491;-76
2023/04/16 02:28:20;;;;;;;38.33;16.80;;;;;;;7.07;100.00;101632.25;5069139;28;20041;-76
2023/04/16 02:30:47;;;;;;;36.60;17.63;;;;;;;7.07;100.00;101630.28;5068567;28;20044;-75
2023/04/16 02:33:13;;;;;;;32.15;15.85;;;;;;;7.04;100.00;101625.47;5069467;28;20053;-76
2023/04/16 02:35:40;;;;;;;38.85;17.90;;;;;;;7.08;100.00;101634.63;5062060;28;20051;-76
2023/04/16 02:38:06;;;;;;;39.08;18.13;;;;;;;7.09;100.00;101632.66;5057785;28;20048;-74
2023/04/16 02:40:33;;;;;;;33.75;16.50;;;;;;;7.09;100.00;101639.00;5068456;28;20048;-76
2023/04/16 02:43:00;;;;;;;44.47;18.10;;;;;;;7.06;100.00;101628.66;5062604;28;20498;-76
2023/04/16 02:45:26;;;;;;;36.03;15.40;;;;;;;7.05;100.00;101627.06;5068975;28;20051;-76
2023/04/16 02:47:53;;;;;;;32.92;14.65;;;;;;;7.07;100.00;101633.06;5069769;28;20051;-74
2023/04/16 02:50:20;;;;;;;41.42;18.50;;;;;;;7.11;100.00;101636.66;5069197;28;20084;-74
2023/04/16 02:52:46;;;;;;;42.15;20.95;;;;;;;7.12;100.00;101634.69;5060600;28;20467;-74
2023/04/16 02:55:13;;;;;;;44.03;19.48;;;;;;;7.12;100.00;101631.91;5068210;28;20541;-75
2023/04/16 02:57:41;;;;;;;46.47;19.70;;;;;;;7.15;100.00;101631.16;5060661;28;20060;-75
2023/04/16 03:00:08;;;;;;;42.33;20.20;;;;;;;7.13;100.00;101628.78;5069998;28;20127;-75
2023/04/16 03:02:34;;;;;;;44.28;20.05;;;;;;;7.15;100.00;101633.94;5066592;28;20708;-75
2023/04/16 03:05:02;;;;;;;43.67;19.92;;;;;;;7.16;100.00;101636.34;5067106;28;20131;-74
2023/04/16 03:07:29;;;;;;;43.05;19.55;;;;;;;7.20;100.00;101634.41;5068468;28;20073;-74
2023/04/16 03:09:55;;;;;;;43.55;19.50;;;;;;;7.19;100.00;101632.81;5065863;28;20671;-76
2023/04/16 03:12:22;;;;;;;44.85;20.00;;;;;;;7.20;100.00;101639.16;5065109;28;20088;-75
2023/04/16 03:14:51;;;;;;;41.20;19.55;;;;;;;7.17;100.00;101631.59;5067639;28;20044;-73
2023/04/16 03:17:17;;;;;;;40.33;18.73;;;;;;;7.15;100.00;101637.50;5064307;28;20060;-73
2023/04/16 03:19:44;;;;;;;40.38;18.20;;;;;;;7.17;100.00;101637.91;5069439;28;20127;-75
2023/04/16 03:22:10;;;;;;;38.88;18.13;;;;;;;7.18;100.00;101642.31;5062518;28;20053;-74
2023/04/16 03:24:37;;;;;;;40.65;18.50;;;;;;;7.19;100.00;101640.31;5067240;28;20052;-74
2023/04/16 03:27:03;;;;;;;45.42;21.20;;;;;;;7.20;100.00;101648.25;5068430;28;20691;-76
2023/04/16 03:29:30;;;;;;;44.53;20.08;;;;;;;7.19;100.00;101640.31;5065762;28;20053;-75
2023/04/16 03:31:56;;;;;;;42.17;17.67;;;;;;;7.20;100.00;101639.16;5058777;28;20044;-73
2023/04/16 03:34:23;;;;;;;45.42;19.92;;;;;;;7.21;100.00;101643.53;5067110;28;20044;-74
2023/04/16 03:36:49;;;;;;;48.53;20.15;;;;;;;7.20;100.00;101636.41;5065828;28;20072;-75
2023/04/16 03:39:16;;;;;;;39.28;17.92;;;;;;;7.22;100.00;101648.69;5066205;28;20052;-76
2023/04/16 03:41:42;;;;;;;43.03;18.02;;;;;;;7.19;100.00;101646.66;5059088;28;20569;-75
2023/04/16 03:44:09;;;;;;;41.63;17.88;;;;;;;7.17;100.00;101640.69;5067940;28;20569;-75
2023/04/16 03:46:35;;;;;;;43.67;18.77;;;;;;;7.22;100.00;101639.56;5065688;28;20052;-75
2023/04/16 03:49:02;;;;;;;44.10;19.50;;;;;;;7.21;100.00;101640.75;5067195;28;20486;-76
2023/04/16 03:51:28;;;;;;;42.05;20.38;;;;;;;7.15;100.00;101642.22;5058826;28;20049;-75
2023/04/16 03:53:55;;;;;;;46.67;20.80;;;;;;;7.22;100.00;101650.63;5066591;28;20040;-75
2023/04/16 03:56:21;;;;;;;42.17;19.08;;;;;;;7.20;100.00;101653.00;5059092;28;20399;-76
2023/04/16 03:58:48;;;;;;;51.53;20.13;;;;;;;7.15;100.00;101648.56;5060452;28;20051;-75
2023/04/16 04:01:14;;;;;;;47.10;22.42;;;;;;;7.20;100.00;101659.31;5064658;28;20064;-76
2023/04/16 04:03:41;;;;;;;49.00;20.70;;;;;;;7.19;100.00;101657.72;5066789;28;20048;-74
2023/04/16 04:06:08;;;;;;;51.45;20.85;;;;;;;7.24;100.00;101653.84;5068504;28;20097;-75
2023/04/16 04:08:34;;;;;;;48.92;22.83;;;;;;;7.23;100.00;101649.50;5059833;28;20047;-75
2023/04/16 04:11:01;;;;;;;57.47;24.17;;;;;;;7.25;100.00;101656.22;5054112;28;20048;-75
2023/04/16 04:13:27;;;;;;;52.40;23.48;;;;;;;7.24;100.00;101664.91;5064210;28;20051;-75
2023/04/16 04:15:54;;;;;;;52.05;23.55;;;;;;;7.26;100.00;101654.28;5066728;28;20395;-74
2023/04/16 04:18:20;;;;;;;48.00;22.23;;;;;;;7.26;100.00;101657.81;5075858;28;20071;-74
2023/04/16 04:20:47;;;;;;;56.15;23.10;;;;;;;7.28;100.00;101655.50;5064458;28;20058;-74
2023/04/16 04:23:13;;;;;;;50.50;24.00;;;;;;;7.27;100.00;101659.41;5066722;28;20430;-75
2023/04/16 04:25:40;;;;;;;50.33;23.23;;;;;;;7.29;100.00;101659.84;5068084;28;20048;-74
2023/04/16 04:28:06;;;;;;;51.20;23.67;;;;;;;7.27;100.00;101661.41;5057615;28;20438;-74
2023/04/16 04:30:34;;;;;;;54.42;24.92;;;;;;;7.28;100.00;101671.28;5058704;28;20057;-74
2023/04/16 04:33:01;;;;;;;56.22;23.55;;;;;;;7.26;100.00;101668.88;5066938;28;20076;-73
2023/04/16 04:35:28;;;;;;;55.50;25.80;;;;;;;7.29;100.00;101665.38;5066149;28;20131;-75
2023/04/16 04:37:54;;;;;;;54.75;24.65;;;;;;;7.28;100.00;101665.75;5063281;28;20057;-75
2023/04/16 04:40:21;;;;;;;59.47;23.15;;;;;;;7.26;100.00;101679.16;5060561;28;20037;-75
2023/04/16 04:42:47;;;;;;;54.25;24.42;;;;;;;7.28;100.00;101672.09;5061132;28;20191;-74
2023/04/16 04:45:14;;;;;;;50.53;24.38;;;;;;;7.29;100.00;101676.44;5056989;28;20067;-74
2023/04/16 04:47:41;;;;;;;57.65;26.25;;;;;;;7.31;100.00;101674.13;5058653;28;20082;-74
2023/04/16 04:50:08;;;;;;;61.75;25.05;;;;;;;7.30;100.00;101675.25;5066956;28;20102;-75
2023/04/16 04:52:35;;;;;;;54.65;24.98;;;;;;;7.30;100.00;101675.25;5065295;28;20129;-75
2023/04/16 04:55:01;;;;;;;48.55;23.10;;;;;;;7.29;100.00;101681.97;5060985;28;20040;-74
2023/04/16 04:57:28;;;;;;;55.13;24.33;;;;;;;7.30;100.00;101680.78;5063722;28;20059;-75
2023/04/16 04:59:54;;;;;;;53.60;24.27;;;;;;;7.32;100.00;101688.72;5060120;28;20040;-75
2023/04/16 05:02:21;;;;;;;55.67;23.92;;;;;;;7.32;100.00;101692.31;5054752;28;20045;-73
2023/04/16 05:04:47;;;;;;;58.97;25.00;;;;;;;7.32;100.00;101691.50;5063852;28;20060;-76
2023/04/16 05:07:14;;;;;;;53.05;24.60;;;;;;;7.32;100.00;101694.25;5062881;28;20040;-74
2023/04/16 05:09:41;;;;;;;57.20;24.50;;;;;;;7.34;100.00;101698.28;5065353;28;20043;-75
2023/04/16 05:12:07;;;;;;;57.00;25.90;;;;;;;7.32;100.00;101697.03;5066985;28;20048;-75
2023/04/16 05:14:35;;;;;;;55.42;26.20;;;;;;;7.33;100.00;101709.72;5063587;28;20052;-75
2023/04/16 05:17:01;;;;;;;58.42;26.42;;;;;;;7.33;100.00;101702.19;5061201;28;20056;-74
2023/04/16 05:19:28;;;;;;;57.72;24.73;;;;;;;7.34;100.00;101709.34;5053517;28;20045;-75
2023/04/16 05:21:55;;;;;;;51.38;24.25;;;;;;;7.38;100.00;101703.84;5061654;28;20126;-75
2023/04/16 05:24:22;;;;;;;54.60;25.73;;;;;;;7.38;100.00;101703.84;5066663;28;20098;-74
2023/04/16 05:26:48;;;;;;;59.28;24.25;;;;;;;7.38;100.00;101712.94;5064802;28;20045;-75
2023/04/16 05:29:15;;;;;;;55.95;24.08;;;;;;;7.40;100.00;101721.66;5065328;28;20044;-75
2023/04/16 05:31:41;;;;;;;59.35;24.75;;;;;;;7.40;100.00;101713.38;5066238;28;20052;-76
2023/04/16 05:34:08;;;;;;;49.83;23.38;;;;;;;7.42;100.00;101715.75;5057635;28;20517;-75
2023/04/16 05:36:34;;;;;;;58.50;25.75;;;;;;;7.42;100.00;101722.09;5063476;28;20135;-74
2023/04/16 05:39:01;;;;;;;48.55;23.17;;;;;;;7.43;100.00;101723.69;5065120;28;20080;-73
2023/04/16 05:41:27;;;;;;;53.55;24.77;;;;;;;7.43;100.00;101732.00;5066803;28;20793;-73
2023/04/16 05:43:54;;;;;;;55.85;25.55;;;;;;;7.42;100.00;101743.44;5062509;28;20049;-75
2023/04/16 05:46:21;;;;;;;56.72;26.10;;;;;;;7.42;100.00;101737.91;5065171;28;20059;-74
2023/04/16 05:48:47;;;;;;;56.90;25.85;;;;;;;7.44;100.00;101739.13;5062082;28;20045;-74
2023/04/16 05:51:14;;;;;;;57.95;24.92;;;;;;;7.46;100.00;101745.09;5058711;28;20702;-75
2023/04/16 05:53:40;;;;;;;57.22;25.83;;;;;;;7.42;100.00;101741.47;5062491;28;20127;-75
2023/04/16 05:56:07;;;;;;;58.97;26.23;;;;;;;7.45;100.00;101743.50;5066507;28;20044;-75
2023/04/16 05:58:34;;;;;;;55.15;25.67;;;;;;;7.47;100.00;101745.91;5066417;28;20056;-74
2023/04/16 06:01:00;;;;;;;56.50;24.98;;;;;;;7.48;100.00;101751.06;5058992;28;20098;-73
2023/04/16 06:03:27;;;;;;;57.85;28.90;;;;;;;7.50;100.00;101757.00;5053710;28;20083;-74
2023/04/16 06:05:53;;;;;;;65.50;27.50;;;;;;;7.50;100.00;101761.75;5055648;28;20132;-74
2023/04/16 06:08:20;;;;;;;58.60;27.38;;;;;;;7.52;100.00;101757.44;5052382;28;20053;-74
2023/04/16 06:10:47;;;;;;;55.30;25.08;;;;;;;7.53;100.00;101764.56;5049985;28;20443;-75
2023/04/16 06:13:13;;;;;;;55.88;25.92;;;;;;;7.56;100.00;101759.47;5059489;28;20064;-75
2023/04/16 06:15:40;;;;;;;58.03;26.23;;;;;;;7.56;100.00;101762.22;5069384;28;20499;-74
2023/04/16 06:18:07;;;;;;;56.38;27.08;;;;;;;7.60;100.00;101760.31;5053041;28;20056;-75
2023/04/16 06:20:33;;;;;;;52.83;25.55;;;;;;;7.61;100.00;101764.66;5050367;28;20045;-75
2023/04/16 06:23:00;;;;;;;60.17;26.15;;;;;;;7.63;100.00;101760.34;5055825;28;20414;-74
2023/04/16 06:25:26;;;;;;;54.80;26.65;;;;;;;7.66;100.00;101756.06;5055391;28;20547;-74
2023/04/16 06:27:53;;;;;;;54.42;24.65;;;;;;;7.67;100.00;101763.19;5050401;28;20060;-75
2023/04/16 06:30:19;;;;;;;54.55;26.52;;;;;;;7.70;100.00;101768.75;5050278;28;20041;-75
2023/04/16 06:32:46;;;;;;;50.65;24.58;;;;;;;7.74;100.00;101772.41;5050411;28;20048;-74
2023/04/16 06:35:13;;;;;;;60.38;27.27;;;;;;;7.77;100.00;101770.84;5060227;28;20064;-75
2023/04/16 06:37:40;;;;;;;52.83;26.30;;;;;;;7.78;100.00;101772.44;5062592;28;20063;-76
2023/04/16 06:40:07;;;;;;;54.78;25.63;;;;;;;7.79;100.00;101774.84;5075822;28;20044;-74
2023/04/16 06:42:33;;;;;;;52.17;25.27;;;;;;;7.83;100.00;101778.44;5068740;28;20510;-76
2023/04/16 06:45:00;;;;;;;58.22;24.05;;;;;;;7.88;100.00;101780.09;5060747;28;20132;-75
2023/04/16 06:47:26;;;;;;;53.05;26.30;;;;;;;7.88;100.00;101778.16;5051279;28;20053;-75
2023/04/16 06:49:53;;;;;;;51.03;25.55;;;;;;;7.90;100.00;101775.00;5054787;28;20044;-75
2023/04/16 06:52:20;;;;;;;60.72;27.08;;;;;;;7.95;100.00;101788.50;5048444;28;20064;-76
2023/04/16 06:54:47;;;;;;;53.03;26.42;;;;;;;7.91;100.00;101785.72;5053500;28;20059;-74
2023/04/16 06:57:13;;;;;;;61.10;27.30;;;;;;;7.93;100.00;101785.34;5063552;28;20057;-75
2023/04/16 06:59:40;;;;;;;56.90;26.48;;;;;;;7.97;100.00;101794.50;5062451;28;20451;-75
2023/04/16 07:02:09;;;;;;;55.20;26.48;;;;;;;7.95;100.00;101778.25;5060089;28;20499;-75
2023/04/16 07:04:36;;;;;;;50.58;25.98;;;;;;;8.04;100.00;101786.28;5054668;28;20502;-74
2023/04/16 07:07:02;;;;;;;57.88;26.50;;;;;;;8.08;100.00;101789.88;5052219;28;20060;-76
2023/04/16 07:09:29;;;;;;;51.42;25.13;;;;;;;8.13;100.00;101786.81;5057598;28;20110;-74
2023/04/16 07:11:55;;;;;;;55.72;27.45;;;;;;;8.19;100.00;101788.88;5065173;28;20159;-72
2023/04/16 07:14:22;;;;;;;53.83;25.63;;;;;;;8.21;100.00;101794.84;5055049;28;20048;-77
2023/04/16 07:16:48;;;;;;;53.50;27.20;;;;;;;8.22;100.00;101795.63;5062155;28;20049;-76
2023/04/16 07:19:15;;;;;;;50.28;25.60;;;;;;;8.24;100.00;101794.06;5065304;28;20195;-74
2023/04/16 07:21:42;;;;;;;47.97;25.77;;;;;;;8.29;100.00;101798.47;5065604;28;20170;-77
2023/04/16 07:24:10;;;;;;;46.78;26.23;;;;;;;8.37;100.00;101800.19;5059271;28;20063;-76
2023/04/16 07:26:36;;;;;;;48.40;25.20;;;;;;;8.41;100.00;101804.56;5056860;28;20165;-75
2023/04/16 07:29:03;;;;;;;50.85;26.15;;;;;;;8.46;100.00;101803.44;5062646;28;20049;-75
2023/04/16 07:31:30;;;;;;;46.30;24.05;;;;;;;8.51;100.00;101811.44;5060998;28;20068;-74
2023/04/16 07:33:57;;;;;;;52.53;26.92;;;;;;;8.52;100.00;101796.41;5056226;28;20128;-74
2023/04/16 07:36:23;;;;;;;50.13;26.05;;;;;;;8.60;100.00;101801.66;5061577;28;20052;-74
2023/04/16 07:38:50;;;;;;;49.90;25.77;;;;;;;8.63;100.00;101812.03;5059141;28;20053;-73
2023/04/16 07:41:16;;;;;;;48.80;24.17;;;;;;;8.65;100.00;101814.41;5062970;28;20145;-74
2023/04/16 07:43:43;;;;;;;46.85;23.30;;;;;;;8.67;100.00;101820.38;5053779;28;20048;-75
2023/04/16 07:46:09;;;;;;;47.92;26.23;;;;;;;8.67;100.00;101823.13;5057775;28;20442;-75
2023/04/16 07:48:36;;;;;;;44.20;23.48;;;;;;;8.70;100.00;101825.16;5061264;28;20502;-75
2023/04/16 07:51:02;;;;;;;45.70;24.05;;;;;;;8.72;100.00;101825.59;5068026;28;20045;-75
2023/04/16 07:53:29;;;;;;;44.67;23.38;;;;;;;8.73;100.00;101828.00;5066258;28;20094;-74
2023/04/16 07:55:56;;;;;;;43.22;23.23;;;;;;;8.78;100.00;101821.31;5061244;28;20060;-74
2023/04/16 07:58:22;;;;;;;43.38;22.67;;;;;;;8.84;100.00;101826.13;5058455;28;20128;-75
2023/04/16 08:00:49;;;;;;;41.40;20.75;;;;;;;8.90;100.00;101829.34;5066235;28;20040;-76
2023/04/16 08:03:16;;;;;;;44.45;24.25;;;;;;;8.99;100.00;101830.66;5057000;28;20534;-74
2023/04/16 08:05:43;;;;;;;35.03;16.98;;;;;;;8.97;100.00;101835.78;5055441;28;20048;-73
2023/04/16 08:08:10;;;;;;;41.10;22.05;;;;;;;9.09;100.00;101835.50;5060091;28;20427;-74
2023/04/16 08:10:37;;;;;;;38.85;21.73;;;;;;;9.13;100.00;101833.59;5057474;28;20052;-74
2023/04/16 08:13:04;;;;;;;38.00;21.65;;;;;;;9.14;100.00;101826.84;5067056;28;20106;-74
2023/04/16 08:15:31;;;;;;;42.65;21.08;;;;;;;9.18;100.00;101835.19;5067595;28;20052;-75
2023/04/16 08:17:58;;;;;;;45.25;23.13;;;;;;;9.18;100.00;101844.31;5061490;28;20048;-75
2023/04/16 08:20:25;;;;;;;40.67;21.13;;;;;;;9.13;100.00;101846.66;5050972;28;20165;-75
2023/04/16 08:22:53;;;;;;;42.63;22.10;;;;;;;9.16;100.00;101855.03;5060614;28;20076;-74
2023/04/16 08:25:19;;;;;;;24.35;11.70;;;;;;;9.16;100.00;101854.22;5061584;28;20434;-74
2023/04/16 08:27:46;;;;;;;37.63;17.40;;;;;;;9.23;100.00;101843.19;5056413;28;20052;-73
2023/04/16 08:30:14;;;;;;;36.35;20.73;;;;;;;9.31;100.00;101848.44;5063716;28;20044;-75
2023/04/16 08:32:40;;;;;;;42.60;20.23;;;;;;;9.44;100.00;101849.75;5066782;28;20040;-74
2023/04/16 08:35:07;;;;;;;37.60;17.70;;;;;;;9.50;100.00;101848.22;5067769;28;20053;-75
2023/04/16 08:37:34;;;;;;;39.40;22.00;;;;;;;9.63;100.00;101851.50;5066530;28;20052;-73
2023/04/16 08:40:01;;;;;;;34.30;19.25;;;;;;;9.76;100.00;101863.91;5060514;28;20055;-75
2023/04/16 08:42:32;;;;;;;36.67;18.85;;;;;;;9.88;100.00;101867.19;5058892;28;20044;-75
2023/04/16 08:45:05;;;;;;;36.38;19.48;;;;;;;9.92;100.00;101872.75;5061514;28;20107;-75
2023/04/16 08:47:33;;;;;;;36.08;18.50;;;;;;;9.96;100.00;101876.34;5066179;28;20132;-73
2023/04/16 08:50:03;;;;;;;34.60;19.45;;;;;;;9.90;100.00;101881.47;5067282;28;20049;-74
2023/04/16 08:52:30;;;;;;;36.22;20.42;;;;;;;9.92;100.00;101878.31;5065471;28;20044;-76
2023/04/16 08:54:57;;;;;;;35.78;20.30;;;;;;;9.88;100.00;101869.97;5063080;28;20075;-74
2023/04/16 08:57:29;;;;;;;36.53;20.60;;;;;;;9.94;100.00;101878.72;5060154;28;20056;-75
2023/04/16 08:59:57;;;;;;;40.85;22.35;;;;;;;10.00;100.00;101883.56;5056667;28;20131;-75
2023/04/16 09:02:25;;;;;;;38.35;22.10;;;;;;;10.06;100.00;101881.22;5066111;28;20086;-74
2023/04/16 09:04:52;;;;;;;38.10;21.98;;;;;;;10.02;100.00;101883.97;5061746;28;20487;-75
2023/04/16 09:07:20;;;;;;;41.95;23.23;;;;;;;9.99;100.00;101890.31;5067219;28;20056;-74
2023/04/16 09:09:48;;;;;;;42.65;23.30;;;;;;;9.96;100.00;101885.47;5062127;28;20059;-73
2023/04/16 09:12:16;;;;;;;38.40;20.75;;;;;;;9.94;100.00;101887.06;5059255;28;20055;-74
2023/04/16 09:14:48;;;;;;;31.20;15.85;;;;;;;9.89;100.00;101888.22;5055178;28;20055;-75
2023/04/16 09:17:15;;;;;;;39.65;21.67;;;;;;;9.95;100.00;101888.66;5073727;28;20102;-73
2023/04/16 09:19:42;;;;;;;37.85;21.05;;;;;;;9.94;100.00;101892.63;5055413;28;20102;-75
2023/04/16 09:22:08;;;;;;;34.55;18.92;;;;;;;9.91;100.00;101887.81;5064612;28;20453;-76
2023/04/16 09:24:37;;;;;;;42.30;23.35;;;;;;;9.95;100.00;101902.53;5077243;28;20054;-76
2023/04/16 09:27:04;;;;;;;35.03;19.35;;;;;;;9.96;100.00;101893.00;5058992;28;20052;-75
2023/04/16 09:29:38;;;;;;;38.75;20.98;;;;;;;10.03;100.00;101901.47;5066576;28;20171;-75
2023/04/16 09:32:07;;;;;;;32.90;17.50;;;;;;;10.08;100.00;101903.88;5066014;28;20071;-74
2023/04/16 09:34:54;;;;;;;36.47;19.23;;;;;;;10.14;100.00;101910.66;5062060;28;20085;-76
2023/04/16 09:37:21;;;;;;;31.63;16.23;;;;;;;10.15;100.00;101909.47;5061105;28;20052;-77
2023/04/16 09:39:57;;;;;;;35.30;19.25;;;;;;;10.06;100.00;101892.31;5057035;28;20048;-75
2023/04/16 09:42:31;;;;;;;39.72;23.63;;;;;;;10.20;100.00;101902.75;5069223;28;20761;-76
2023/04/16 09:44:59;;;;;;;43.80;23.02;;;;;;;10.23;100.00;101907.56;5062833;28;20067;-76
2023/04/16 09:47:46;;;;;;;36.65;19.60;;;;;;;10.26;100.00;101912.34;5062801;28;20052;-75
2023/04/16 09:50:20;;;;;;;37.67;21.08;;;;;;;10.36;100.00;101915.16;5066250;28;20430;-74
2023/04/16 09:52:50;;;;;;;38.33;21.13;;;;;;;10.40;100.00;101906.88;5062347;28;20068;-74
2023/04/16 09:55:22;;;;;;;43.15;22.55;;;;;;;10.53;100.00;101916.47;5068118;28;20049;-73
2023/04/16 09:57:57;;;;;;;39.40;20.83;;;;;;;10.61;100.00;101913.34;5068031;28;20131;-74
2023/04/16 10:00:24;;;;;;;37.47;20.65;;;;;;;10.72;100.00;101913.41;5065000;28;20542;-73
2023/04/16 10:03:02;;;;;;;36.85;22.27;;;;;;;10.78;100.00;101915.44;5054844;28;20082;-73
2023/04/16 10:05:29;;;;;;;42.45;20.00;;;;;;;10.84;100.00;101913.84;5052657;28;20458;-73
2023/04/16 10:07:59;;;;;;;36.53;19.42;;;;;;;10.97;100.00;101925.44;5064501;28;20041;-74
2023/04/16 10:10:25;;;;;;;28.13;13.32;;;;;;;11.03;100.00;101919.09;5066113;28;20041;-80
2023/04/16 10:12:54;;;;;;;39.15;22.27;;;;;;;11.15;100.00;101924.31;5055189;28;20052;-73
2023/04/16 10:15:21;;;;;;;38.63;22.70;;;;;;;11.26;100.00;101930.75;5060917;28;20053;-73
2023/04/16 10:17:49;;;;;;;36.90;20.95;;;;;;;11.30;100.00;101927.97;5060457;28;20064;-73
2023/04/16 10:20:17;;;;;;;33.15;19.58;;;;;;;11.33;100.00;101921.59;5056811;28;20064;-74
2023/04/16 10:22:44;;;;;;;35.38;18.35;;;;;;;11.29;100.00;101926.38;5064335;28;20049;-75
2023/04/16 10:25:11;;;;;;;38.15;21.35;;;;;;;11.36;100.00;101921.63;5065163;28;20060;-75
2023/04/16 10:27:39;;;;;;;31.42;16.80;;;;;;;11.40;100.00;101930.78;5066182;28;20059;-75
2023/04/16 10:30:08;;;;;;;32.88;19.58;;;;;;;11.57;100.00;101932.00;5059955;28;20063;-74
2023/04/16 10:32:35;;;;;;;34.13;18.85;;;;;;;11.58;100.00;101934.41;5061485;28;20136;-75
2023/04/16 10:35:02;;;;;;;35.38;19.80;;;;;;;11.75;100.00;101936.41;5061953;28;20139;-75
2023/04/16 10:37:30;;;;;;;34.65;19.88;;;;;;;11.84;100.00;101942.41;5053474;28;20049;-75
2023/04/16 10:39:59;;;;;;;33.72;18.05;;;;;;;11.81;100.00;101937.63;5060872;28;20052;-77
2023/04/16 10:42:26;;;;;;;33.80;20.38;;;;;;;11.84;100.00;101941.59;5067309;28;20053;-76
2023/04/16 10:44:52;;;;;;;30.65;16.95;;;;;;;11.66;100.00;101930.44;5055258;28;20049;-74
2023/04/16 10:47:23;;;;;;;34.80;19.92;;;;;;;11.55;100.00;101929.63;5055790;28;20052;-73
2023/04/16 10:49:50;;;;;;;37.83;19.63;;;;;;;11.62;100.00;101926.06;5065864;28;20060;-74
2023/04/16 10:52:17;;;;;;;42.03;25.65;;;;;;;11.71;100.00;101921.69;5066947;28;20134;-75
2023/04/16 10:54:45;;;;;;;35.08;20.38;;;;;;;11.83;100.00;101912.94;5053769;28;20136;-76
2023/04/16 10:57:16;;;;;;;33.13;18.65;;;;;;;11.95;100.00;101914.56;5049501;28;20521;-72
2023/04/16 10:59:44;;;;;;;33.42;17.05;;;;;;;12.07;100.00;101908.56;5059072;28;20056;-75
2023/04/16 11:02:16;;;;;;;37.15;21.20;;;;;;;12.19;100.00;101906.16;5054750;28;20153;-75
2023/04/16 11:04:47;;;;;;;39.58;20.85;;;;;;;12.36;100.00;101912.94;5060494;28;20048;-74
2023/04/16 11:07:16;;;;;;;33.50;18.92;;;;;;;12.34;100.00;101910.53;5061191;28;20064;-74
2023/04/16 11:09:45;;;;;;;34.92;18.58;;;;;;;12.36;100.00;101910.94;5059265;28;20756;-74